Andale, Kansas
Current Conditions -  °F | °C
As of 6:53 PM on Friday 24 Oct 2014 (Local Time) from KICT Reporting Station
Few Clouds Few Clouds  
Wind Chill: 74°   Ceiling: Unl
Heat Index: 74°   Visibility: 10mi
Dew Point: 60°   Wind: 7mph
Humidity: 62%   Direction: 220°SW
Pressure: 29.99"   Gusts: NA
Location:  37.79°N, 97.63°W
Report Text: KICT 242353Z 22006KT 10SM FEW300 23/16 A2999 RMK AO2 SLP148 T02330156 10289 20233 53001
Loading
Personal Weather Stations






























Interactive Weather Map New forecast layout! Learn more

10-Day Weather Forecast

Advertisements
Track Severe Weather on mobile